Andrews Air Force Base Camp Springs US
ICAO: KADW
IATA: ADW
Category: Large
Scheduled Services: No

Elevation: 280 ft
TransAlt. 18000 ft.

Airport Communications:
POTOMAC APP:119.3
ATIS:113.1
CLNC DEL:127.55
POTOMAC DEP:125.65
GND:121.8
AFRC OPS:143.8
PMSV METRO:34.46
COMD POST:141.55
PTD:139.3
TWR:118.4

KADW Zoom In..

Runways:

(A) RW 01L length 9318 ft width 200 ft
ILS 111.50 / hdg 10

(B) RW 01R length 9756 ft width 150 ft
ILS 110.50 / hdg 10

(C) RW 19L length 9756 ft width 150 ft
ILS 110.50 / hdg 190

(D) RW 19R length 9318 ft width 200 ft
ILS 111.50 / hdg 190

Location; KADW
Day. 15 / Time. 21.56 Zulu
* Altimeter: 29.98
* Temperature: 28° c. 82.4°f.
* Wind from: 180° Speed 05 kn.
Dewpoint: 21° c.
Visibility: 10 Statute Miles.
Clouds: Broken 2000 ft.

KADW 152156Z 18005KT 10SM BKN200 28/21 A2998 RMK AO2A SLP157 T02780208 VISNO RWY19L $


Wind From 180°
Speed 05 kn.

 
 
jpsmedia.com for Web Design worldairports.se 2018   terms of use